Flight Track Log - Related Links

Times and Time Zones

All times are in EDT time to prevent confusion due to time zone crossing. See the SKW5500 flight status page for this flight to view local times or setup timezone preferences in your user account.

Time Position Orientation Groundspeed Altitude Reporting Facility
EDT Latitude Longitude Course Direction KTS MPH feet Rate Location/Type
Mon 06:05:18 PM 39.8333 -104.7667 250° West 215 247 7,700  Level Denver TRACON
Mon 06:06:13 PM 39.8333 -104.8500 270° West 245 282 11,000 2,538 Climbing Denver TRACON
Mon 06:07:02 PM 39.8572 -104.9100 297° West 251 289 12,100 2,486 Climbing Denver Center
Mon 06:08:04 PM 39.8878 -104.9981 294° West 250 288 15,600 3,122 Climbing Denver Center
Mon 06:09:05 PM 39.8736 -105.0950 259° West 282 325 18,500 2,585 Climbing Denver Center
Mon 06:10:00 PM 39.6753 -105.3316 250° West  Level Estimated
Mon 06:10:07 PM 39.8475 -105.1775 248° West 291 335 20,900  Level Denver Center
Mon 06:11:09 PM 39.8094 -105.3044 249° West 319 367 22,000 537 Climbing Denver Center
Mon 06:12:10 PM 39.7731 -105.4211 248° West 347 399 22,000  Level Denver Center
Mon 06:13:12 PM 39.7372 -105.5372 248° West 347 399 22,000  Level Denver Center
Mon 06:14:13 PM 39.7017 -105.6608 250° West 362 417 22,000  Level Denver Center
Mon 06:15:15 PM 39.6844 -105.7892 260° West 365 420 22,000  Level Denver Center
Mon 06:16:16 PM 39.6728 -105.9169 263° West 359 413 22,000  Level Denver Center
Mon 06:17:18 PM 39.6550 -106.0700 261° West 359 413 22,000  Level Denver Center
Mon 06:18:20 PM 39.6408 -106.1969 262° West 361 415 22,000  Level Denver Center
Mon 06:19:21 PM 39.6239 -106.3258 260° West 361 415 22,000  Level Denver Center
Mon 06:20:23 PM 39.5964 -106.4508 254° West 361 415 22,000 -634 Level Denver Center
Mon 06:21:24 PM 39.5686 -106.5781 254° West 359 413 20,700 -1,463 Descending Denver Center
Mon 06:22:26 PM 39.5408 -106.7081 255° West 333 383 19,000 -1,742 Descending Denver Center
Mon 06:23:28 PM 39.5233 -106.8025 257° West 287 330 17,100 -2,098 Descending Denver Center
Mon 06:24:29 PM 39.5072 -106.9019 258° West 263 303 14,700 -1,561 Descending Denver Center
Mon 06:25:31 PM 39.4739 -106.9647 235° Southwest 216 249 13,900 -780 Descending Denver Center
Mon 06:26:32 PM 39.4356 -106.9678 184° South 167 192 13,100 -683 Descending Denver Center
Mon 06:27:34 PM 39.3914 -106.9500 163° South 169 194 12,500 -1,065 Descending Denver Center
Mon 06:28:36 PM 39.3394 -106.9247 159° South 169 194 10,900 -1,463 Descending Denver Center
Mon 06:29:37 PM 39.2958 -106.9039 160° South 169 194 9,500 -1,122 Descending Denver Center
Mon 06:30:39 PM 39.2569 -106.8856 160° South 169 194 8,600 -871 Descending Denver Center

Login

Don't have an account? Register now (free) for customized features, flight alerts, and more!